Latest Weather Observations for Terrey Hills

IDN60901

Issued at 6:02 pm EST Saturday 5 September 2026 (issued every 10 minutes, with the page automatically refreshed every 10 minutes)

About weather observations | Map of Sydney area stations | Latest observations for Sydney area | Other Formats
Station Details ID: 066059 Name: TERREY HILLS AWS Lat: -33.69 Lon: 151.23 Height: 199.0 m
Data from the previous 72 hours. | See also: Recent months at Terrey Hills
Date/Time
EST
Temp
°C
App
Temp
°C
Dew
Point
°C
Rel
Hum
%
Delta-T
°C
Wind Press
QNH
hPa
Press
MSL
hPa
Rain since
9am
mm
Dir  Spd
km/h
Gust
km/h
Spd
kts
Gust
kts
05/06:00pm 20.6 18.0 12.1 58 4.8 WNW 17 30 9 16 - - 0.0
05/05:30pm 20.8 17.3 12.2 58 4.9 WNW 22 41 12 22 - - 0.0
05/05:00pm 22.2 18.4 11.3 50 6.1 W 22 37 12 20 - - 0.0
05/04:49pm 22.6 18.8 11.0 48 6.5 W 22 43 12 23 - - 0.0
05/04:36pm 21.9 16.4 12.5 55 5.4 WSW 33 65 18 35 - - 0.0
05/04:30pm 22.8 16.8 10.9 47 6.7 WSW 33 70 18 38 - - 0.0
05/04:26pm 26.7 21.0 8.2 31 10.1 W 28 70 15 38 - - 0.0
05/04:00pm 29.0 25.5 7.0 25 11.9 WNW 15 30 8 16 - - 0.0
05/03:43pm 29.2 24.9 7.2 25 11.9 NW 19 43 10 23 - - 0.0
05/03:30pm 29.5 23.6 7.4 25 12.0 WNW 28 48 15 26 - - 0.0
05/03:28pm 29.5 23.6 7.4 25 12.0 NW 28 48 15 26 - - 0.0
05/03:26pm 29.8 24.3 7.7 25 12.1 NW 26 44 14 24 - - 0.0
05/03:07pm 29.7 23.7 7.0 24 12.3 NW 28 54 15 29 - - 0.0
05/03:05pm 29.8 24.6 7.1 24 12.3 NW 24 46 13 25 - - 0.0
05/03:00pm 30.2 25.0 7.4 24 12.5 NW 24 46 13 25 - - 0.0
05/02:30pm 30.3 23.5 6.9 23 12.7 NW 32 57 17 31 - - 0.0
05/02:20pm 30.4 24.9 7.6 24 12.5 NW 26 56 14 30 - - 0.0
05/02:00pm 29.4 26.0 9.0 28 11.4 N 17 32 9 17 - - 0.0
05/01:30pm 28.6 24.7 8.8 29 11.0 N 19 33 10 18 - - 0.0
05/01:00pm 27.6 24.6 9.4 32 10.2 N 15 26 8 14 - - 0.0
05/12:30pm 26.8 24.2 9.2 33 9.7 N 13 22 7 12 - - 0.0
05/12:00pm 26.1 24.4 9.9 36 9.0 N 9 20 5 11 - - 0.0
05/11:30am 24.2 20.7 8.6 37 8.4 N 17 28 9 15 - - 0.0
05/11:00am 23.3 20.2 9.0 40 7.7 N 15 22 8 12 - - 0.0
05/10:30am 22.3 19.2 8.8 42 7.2 N 15 24 8 13 - - 0.0
05/10:00am 21.5 17.6 7.0 39 7.5 N 17 28 9 15 - - 0.0
05/09:30am 21.3 18.0 8.2 43 6.9 NNW 15 28 8 15 - - 0.0
05/09:00am 20.0 16.6 7.7 45 6.4 NNW 15 24 8 13 - - 0.0
05/08:30am 20.1 17.4 8.8 48 6.0 NNW 13 26 7 14 - - 0.0
05/08:00am 18.5 15.6 8.2 51 5.3 N 13 22 7 12 - - 0.0
05/07:30am 17.5 14.9 7.8 53 5.0 NNW 11 17 6 9 - - 0.0
05/07:00am 15.9 13.7 7.7 58 4.1 NNW 9 17 5 9 - - 0.0
05/06:30am 15.3 12.5 7.1 58 4.1 NNW 11 17 6 9 - - 0.0
05/06:00am 15.3 12.2 7.3 59 4.0 NNW 13 20 7 11 - - 0.0
05/05:30am 15.7 12.6 7.2 57 4.2 N 13 20 7 11 - - 0.0
05/05:00am 15.8 13.2 7.6 58 4.1 NNW 11 19 6 10 - - 0.0
05/04:30am 15.7 13.2 8.0 60 3.9 NNW 11 20 6 11 - - 0.0
05/04:00am 15.3 12.8 8.3 63 3.6 NNW 11 19 6 10 - - 0.0
05/03:30am 15.4 12.9 8.4 63 3.6 NNW 11 19 6 10 - - 0.0
05/03:00am 15.5 13.4 8.3 62 3.7 NNW 9 17 5 9 - - 0.0
05/02:30am 16.3 14.1 8.0 58 4.2 NNW 9 17 5 9 - - 0.0
05/02:00am 16.3 14.1 8.0 58 4.2 NW 9 15 5 8 - - 0.0
05/01:30am 14.2 11.8 8.6 69 2.8 NW 11 17 6 9 - - 0.0
05/01:00am 12.8 10.6 9.4 80 1.7 WNW 11 15 6 8 - - 0.0
05/12:30am 14.1 12.6 9.1 72 2.6 NW 7 9 4 5 - - 0.0
05/12:00am 14.5 13.3 9.5 72 2.6 NW 6 9 3 5 - - 0.0
 
Date/Time
EST
Temp
°C
App
Temp
°C
Dew
Point
°C
Rel
Hum
%
Delta-T
°C
Wind Press
QNH
hPa
Press
MSL
hPa
Rain since
9am
mm
Dir  Spd
km/h
Gust
km/h
Spd
kts
Gust
kts
04/11:30pm 14.5 13.2 10.1 75 2.3 WNW 7 9 4 5 - - 0.0
04/11:00pm 13.5 12.1 10.9 84 1.4 WNW 9 9 5 5 - - 0.0
04/10:30pm 13.1 11.3 11.0 87 1.1 WNW 11 13 6 7 - - 0.0
04/10:00pm 13.3 11.9 10.8 85 1.3 WNW 9 11 5 6 - - 0.0
04/09:30pm 15.0 14.8 11.8 81 1.7 NW 4 7 2 4 - - 0.0
04/09:00pm 15.7 14.6 12.1 79 2.0 NNE 9 17 5 9 - - 0.0
04/08:30pm 15.6 15.0 11.8 78 2.1 NNE 6 9 3 5 - - 0.0
04/08:00pm 15.5 14.2 11.1 75 2.4 NNE 9 15 5 8 - - 0.0
04/07:30pm 15.4 13.8 10.2 71 2.8 NNE 9 15 5 8 - - 0.0
04/07:00pm 15.6 13.6 10.2 70 2.9 NNE 11 19 6 10 - - 0.0
04/06:30pm 15.9 13.5 10.0 68 3.1 NNE 13 17 7 9 - - 0.0
04/06:00pm 16.1 14.4 10.0 67 3.2 NNE 9 15 5 8 - - 0.0
04/05:30pm 16.1 14.9 10.2 68 3.1 NNE 7 11 4 6 - - 0.0
04/05:00pm 16.8 14.7 9.7 63 3.8 NNE 11 19 6 10 - - 0.0
04/04:30pm 18.3 16.9 9.4 56 4.7 NE 7 15 4 8 - - 0.0
04/04:00pm 19.6 17.7 8.9 50 5.7 NE 9 17 5 9 - - 0.0
04/03:30pm 21.7 19.7 6.4 37 7.8 N 6 11 3 6 - - 0.0
04/03:00pm 21.2 19.1 5.9 37 7.7 NW 6 9 3 5 - - 0.0
04/02:30pm 21.3 19.6 6.0 37 7.8 NW 4 9 2 5 - - 0.0
04/02:00pm 21.1 19.0 6.6 39 7.4 WNW 7 11 4 6 - - 0.0
04/01:30pm 20.6 18.0 6.2 39 7.3 WNW 9 17 5 9 - - 0.0
04/01:00pm 19.7 17.1 6.1 41 6.8 WSW 9 15 5 8 - - 0.0
04/12:30pm 19.9 18.0 7.6 45 6.4 WNW 7 11 4 6 - - 0.0
04/12:00pm 19.1 17.1 6.9 45 6.2 W 7 13 4 7 - - 0.0
04/11:30am 18.8 16.8 6.9 46 6.0 W 7 13 4 7 - - 0.0
04/11:00am 18.5 16.5 7.0 47 5.8 W 7 13 4 7 - - 0.0
04/10:30am 18.1 15.4 7.2 49 5.5 WSW 11 20 6 11 - - 0.0
04/10:00am 17.6 15.2 7.1 50 5.3 W 9 19 5 10 - - 0.0
04/09:30am 17.1 14.4 7.2 52 5.0 WSW 11 19 6 10 - - 0.0
04/09:00am 16.3 13.5 7.0 54 4.6 WSW 11 20 6 11 - - 0.0
04/08:30am 15.3 13.0 7.3 59 4.0 W 9 19 5 10 - - 0.0
04/08:00am 13.8 11.0 6.9 63 3.4 W 11 17 6 9 - - 0.0
04/07:30am 12.8 10.4 6.8 67 2.9 W 9 15 5 8 - - 0.0
04/07:00am 11.9 9.3 6.2 68 2.7 W 9 17 5 9 - - 0.0
04/06:30am 11.7 9.1 6.0 68 2.7 W 9 15 5 8 - - 0.0
04/06:00am 12.1 9.4 5.7 65 3.0 W 9 13 5 7 - - 0.0
04/05:30am 12.6 9.9 5.8 63 3.2 W 9 13 5 7 - - 0.0
04/05:00am 13.0 9.9 5.4 60 3.6 WSW 11 19 6 10 - - 0.0
04/04:30am 13.1 10.0 5.5 60 3.6 WSW 11 19 6 10 - - 0.0
04/04:00am 13.3 10.2 5.5 59 3.7 WSW 11 20 6 11 - - 0.0
04/03:30am 13.4 10.3 5.6 59 3.7 WSW 11 20 6 11 - - 0.0
04/03:00am 13.2 10.6 5.9 61 3.5 WSW 9 17 5 9 - - 0.0
04/02:30am 12.8 10.2 5.9 63 3.3 W 9 17 5 9 - - 0.0
04/02:00am 12.7 9.7 6.1 64 3.2 W 11 19 6 10 - - 0.0
04/01:30am 13.2 11.0 6.1 62 3.4 W 7 19 4 10 - - 0.0
04/01:00am 13.9 10.6 6.3 60 3.7 WSW 13 22 7 12 - - 0.0
04/12:30am 13.7 11.1 6.3 61 3.6 WSW 9 17 5 9 - - 0.0
04/12:00am 14.1 11.6 6.5 60 3.7 W 9 22 5 12 - - 0.0
 
Date/Time
EST
Temp
°C
App
Temp
°C
Dew
Point
°C
Rel
Hum
%
Delta-T
°C
Wind Press
QNH
hPa
Press
MSL
hPa
Rain since
9am
mm
Dir  Spd
km/h
Gust
km/h
Spd
kts
Gust
kts
03/11:30pm 14.4 11.5 6.5 59 3.9 WSW 11 22 6 12 - - 0.0
03/11:00pm 15.1 11.0 6.4 56 4.3 WSW 17 28 9 15 - - 0.0
03/10:30pm 15.4 12.5 6.4 55 4.4 WSW 11 17 6 9 - - 0.0
03/10:00pm 16.1 13.5 7.6 57 4.3 W 11 19 6 10 - - 0.0
03/09:30pm 16.4 14.1 7.3 55 4.6 W 9 19 5 10 - - 0.0
03/09:00pm 16.7 14.4 7.4 54 4.7 WNW 9 17 5 9 - - 0.0
03/08:30pm 17.4 14.7 7.2 51 5.2 WNW 11 20 6 11 - - 0.0
03/08:00pm 18.1 15.3 6.9 48 5.7 WNW 11 20 6 11 - - 0.0
03/07:30pm 19.0 15.4 6.8 45 6.2 W 15 26 8 14 - - 0.0
03/07:00pm 19.4 15.7 6.5 43 6.5 WNW 15 26 8 14 - - 0.0
03/06:30pm 19.4 16.9 6.5 43 6.5 WNW 9 17 5 9 - - 0.0
03/06:00pm 20.2 17.6 6.2 40 7.1 NW 9 17 5 9 - - 0.0
03/05:30pm 21.2 18.2 5.9 37 7.7 NW 11 22 6 12 - - 0.0
03/05:00pm 22.5 19.6 6.3 35 8.3 WNW 11 24 6 13 - - 0.0
03/04:30pm 23.5 20.2 6.3 33 8.9 WNW 13 22 7 12 - - 0.0
03/04:00pm 23.9 19.4 4.3 28 9.8 WNW 17 33 9 18 - - 0.0
03/03:30pm 24.3 19.5 4.6 28 9.9 WNW 19 33 10 18 - - 0.0
03/03:00pm 24.6 19.9 5.9 30 9.7 WNW 20 37 11 20 - - 0.0
03/02:30pm 25.0 20.6 6.7 31 9.6 WNW 19 35 10 19 - - 0.0
03/02:00pm 25.6 22.2 7.7 32 9.6 WNW 15 30 8 16 - - 0.0
03/01:30pm 25.7 22.1 8.2 33 9.5 WNW 17 30 9 16 - - 0.0
03/01:00pm 25.7 22.3 7.8 32 9.6 W 15 24 8 13 - - 0.0
03/12:30pm 24.8 22.0 8.7 36 8.7 WSW 13 26 7 14 - - 0.0
03/12:00pm 25.6 21.9 8.1 33 9.4 W 17 35 9 19 - - 0.0
03/11:30am 25.1 20.7 7.3 32 9.5 W 20 35 11 19 - - 0.0
03/11:00am 24.8 20.5 7.0 32 9.4 W 19 32 10 17 - - 0.0
03/10:47am 25.0 21.6 7.6 33 9.3 W 15 33 8 18 - - 0.0
03/10:32am 24.3 18.2 6.6 32 9.2 W 28 48 15 26 - - 0.0
03/10:30am 24.4 19.2 7.1 33 9.1 W 24 48 13 26 - - 0.0
03/10:00am 24.3 20.8 10.2 41 7.8 W 19 33 10 18 - - 0.0
03/09:30am 24.0 20.4 9.9 41 7.8 WNW 19 33 10 18 - - 0.0
03/09:00am 23.3 19.9 9.3 41 7.6 NW 17 30 9 16 - - 0.0
03/08:30am 22.1 19.6 9.6 45 6.8 N 13 19 7 10 - - 0.0
03/08:00am 20.9 19.5 9.5 48 6.1 N 7 15 4 8 - - 0.0
03/07:30am 19.8 17.0 8.5 48 5.9 N 13 24 7 13 - - 0.0
03/07:00am 19.1 16.3 8.4 50 5.6 N 13 20 7 11 - - 0.0
03/06:30am 18.9 16.0 8.3 50 5.5 N 13 22 7 12 - - 0.0
03/06:00am 18.6 15.5 8.8 53 5.1 N 15 20 8 11 - - 0.0
03/05:30am 19.0 16.8 9.2 53 5.2 NNW 11 19 6 10 - - 0.0
03/05:00am 19.4 16.7 9.0 51 5.5 NNW 13 20 7 11 - - 0.0
03/04:30am 19.9 17.5 8.6 48 6.0 W 11 20 6 11 - - 0.0
03/04:00am 19.9 17.5 8.6 48 6.0 NNW 11 22 6 12 - - 0.0
03/03:30am 19.5 16.8 8.8 50 5.7 NW 13 20 7 11 - - 0.0
03/03:00am 19.1 16.4 9.0 52 5.3 NW 13 22 7 12 - - 0.0
03/02:30am 19.1 16.4 9.0 52 5.3 NW 13 22 7 12 - - 0.0
03/02:00am 19.1 16.8 9.0 52 5.3 NNW 11 20 6 11 - - 0.0
03/01:30am 18.8 16.3 9.6 55 4.9 NNW 13 26 7 14 - - 0.0
03/01:00am 19.7 17.3 8.7 49 5.8 NNW 11 22 6 12 - - 0.0
03/12:30am 19.5 17.1 8.5 49 5.8 NNW 11 17 6 9 - - 0.0
03/12:00am 19.2 17.2 8.5 50 5.6 NNW 9 19 5 10 - - 0.0
 
Date/Time
EST
Temp
°C
App
Temp
°C
Dew
Point
°C
Rel
Hum
%
Delta-T
°C
Wind Press
QNH
hPa
Press
MSL
hPa
Rain since
9am
mm
Dir  Spd
km/h
Gust
km/h
Spd
kts
Gust
kts
02/11:30pm 19.7 17.2 8.4 48 5.9 NNW 11 19 6 10 - - 0.0
02/11:00pm 19.6 17.1 8.3 48 5.9 NNW 11 20 6 11 - - 0.0
02/10:30pm 19.8 17.7 8.2 47 6.1 NNW 9 15 5 8 - - 0.0
02/10:00pm 19.8 17.7 8.2 47 6.1 N 9 17 5 9 - - 0.0
02/09:30pm 19.8 17.8 8.5 48 5.9 NNW 9 20 5 11 - - 0.0
02/09:00pm 19.0 17.5 8.6 51 5.5 NNW 6 9 3 5 - - 0.0
02/08:30pm 19.6 18.1 8.3 48 5.9 NW 6 9 3 5 - - 0.0
02/08:00pm 20.1 18.3 8.1 46 6.3 NW 7 13 4 7 - - 0.0
02/07:30pm 20.4 18.5 7.7 44 6.6 NW 7 13 4 7 - - 0.0
02/07:00pm 21.5 19.2 7.3 40 7.4 W 9 15 5 8 - - 0.0
02/06:30pm 21.1 19.2 7.7 42 7.0 WNW 7 11 4 6 - - 0.0

Latest Capital City Observations: Canberra | Sydney | Melbourne | Brisbane | Adelaide | Perth | Hobart | Darwin

Other formats

Comma delimited format used in spreadsheet applications
http://www.bom.gov.au/fwo/IDN60901/IDN60901.94759.axf

JavaScript Object Notation format (JSON) in row-major order
http://www.bom.gov.au/fwo/IDN60901/IDN60901.94759.json

Data quality

Most of these data are generated automatically and are frequently updated. Quality checks on data are not normally performed. It is possible for incorrect values to appear. Refer to information at About Latest Weather Observations and please check the disclaimer before using these data.